首页
METAR-TAF:

METAR-TAF

机场 :

圖爾恰, 罗马尼亚

纬度: 45-11N, 经度: 028-49E, 海拔: 4米

当前天气观测

该预报发布于35分钟前的12:30 UTC
风速13节,风向北转东北
温度 2°C
湿度 80%
气压 1028 hPa
能见度10公里或以上

METAR: LRTC 191230Z AUTO 02013KT 9999 FEW015/// BKN037/// 02/M01 Q1028

时间: 15:05 (13:05 UTC)

预报

该预报发布于8小时和5分钟前的05:00 UTC
预报有效从19日的 06点(UTC)到 19日的 15点(UTC)
风速8节,风向
能见度10公里或以上
多云层高于2500英尺

TAF: LRTC 190500Z 1906/1915 35008KT 9999 BKN025

超过4000个机场的气象观测和天气预报(METAR&TAF报告)。

可查询的气象台以黄色和红色小点在地图上表示。

将鼠标移到小点上方,可查看气象台名称。

然后点击查看天气观测和预报。

如需切换地图:点击带黑十字的绿色按钮放大地图;点击带横线的绿色按钮缩小地图;或者点击绿色箭头查看邻近地区的地图。


METAR-TAF: